createdAt,value
2022-09-09T00:00:25.117Z,0.00
2022-09-09T00:01:25.045Z,0.00
2022-09-09T00:02:25.447Z,0.00
2022-09-09T00:03:25.181Z,0.00
2022-09-09T00:04:25.031Z,0.00
2022-09-09T00:05:25.031Z,0.00
2022-09-09T00:06:24.998Z,0.00
2022-09-09T00:07:24.988Z,0.00
2022-09-09T00:08:24.961Z,0.00
2022-09-09T00:09:25.010Z,0.00
2022-09-09T00:10:24.940Z,0.00
2022-09-09T00:11:28.169Z,0.00
2022-09-09T00:12:25.910Z,0.00
2022-09-09T00:13:24.915Z,0.00
2022-09-09T00:14:24.940Z,0.00
2022-09-09T00:15:24.904Z,0.00
2022-09-09T00:16:24.951Z,0.00
2022-09-09T00:17:24.858Z,0.00
2022-09-09T00:18:24.855Z,0.00
2022-09-09T00:19:25.705Z,0.00
2022-09-09T00:20:25.191Z,0.00
2022-09-09T00:21:24.861Z,0.00
2022-09-09T00:22:24.793Z,0.00
2022-09-09T00:23:24.800Z,0.00
2022-09-09T00:24:24.812Z,0.00
2022-09-09T00:25:24.902Z,0.00
2022-09-09T00:26:24.756Z,0.00
2022-09-09T00:27:24.778Z,0.00
2022-09-09T00:28:24.753Z,0.00
2022-09-09T00:29:24.765Z,0.00
2022-09-09T00:30:24.755Z,0.00
2022-09-09T00:31:24.790Z,0.00
2022-09-09T00:32:24.703Z,0.00
2022-09-09T00:33:25.477Z,0.00
2022-09-09T00:34:24.716Z,0.00
2022-09-09T00:35:24.708Z,0.00
2022-09-09T00:36:24.656Z,0.00
2022-09-09T00:37:24.684Z,0.00
2022-09-09T00:38:24.628Z,0.00
2022-09-09T00:39:24.627Z,0.00
2022-09-09T00:40:24.642Z,0.00
2022-09-09T00:41:24.626Z,0.00
2022-09-09T00:42:24.600Z,0.00
2022-09-09T00:43:24.644Z,0.00
2022-09-09T00:44:24.578Z,0.00
2022-09-09T00:45:24.569Z,0.00
2022-09-09T00:46:24.657Z,0.00
2022-09-09T00:47:24.569Z,0.00
2022-09-09T00:48:25.339Z,0.00
2022-09-09T00:49:24.520Z,0.00
2022-09-09T00:50:24.524Z,0.00
2022-09-09T00:51:24.571Z,0.00
2022-09-09T00:52:24.539Z,0.00
2022-09-09T00:53:24.477Z,0.00
2022-09-09T00:54:24.477Z,0.00
2022-09-09T00:55:24.443Z,0.00
2022-09-09T00:56:24.473Z,0.00
2022-09-09T00:57:24.755Z,0.00
2022-09-09T00:58:24.433Z,0.00
2022-09-09T00:59:28.212Z,0.00
2022-09-09T01:00:24.425Z,0.00
2022-09-09T01:01:24.458Z,0.00
2022-09-09T01:02:24.541Z,0.00
2022-09-09T01:03:24.371Z,0.00
2022-09-09T01:04:24.366Z,0.00
2022-09-09T01:05:24.346Z,0.00
2022-09-09T01:06:24.351Z,0.00
2022-09-09T01:07:24.373Z,0.00
2022-09-09T01:08:24.334Z,0.00
2022-09-09T01:09:24.305Z,0.00
2022-09-09T01:10:24.305Z,0.00
2022-09-09T01:11:24.276Z,0.00
2022-09-09T01:12:24.327Z,0.00
2022-09-09T01:13:24.287Z,0.00
2022-09-09T01:14:24.246Z,0.00
2022-09-09T01:15:24.246Z,0.00
2022-09-09T01:16:24.317Z,0.00
2022-09-09T01:17:24.225Z,0.00
2022-09-09T01:18:24.238Z,0.00
2022-09-09T01:19:24.226Z,0.00
2022-09-09T01:20:24.529Z,0.00
2022-09-09T01:21:24.803Z,0.00
2022-09-09T01:22:24.189Z,0.00
2022-09-09T01:23:24.178Z,0.00
2022-09-09T01:24:24.620Z,0.00
2022-09-09T01:25:24.140Z,0.00
2022-09-09T01:26:24.150Z,0.00
2022-09-09T01:27:24.102Z,0.00
2022-09-09T01:28:24.099Z,0.00
2022-09-09T01:29:25.021Z,0.00
2022-09-09T01:30:24.111Z,0.00
2022-09-09T01:31:24.131Z,0.00
2022-09-09T01:32:24.062Z,0.00
2022-09-09T01:33:24.041Z,0.00
2022-09-09T01:34:24.084Z,0.00
2022-09-09T01:35:24.031Z,0.00
2022-09-09T01:36:24.032Z,0.00
2022-09-09T01:37:23.994Z,0.00
2022-09-09T01:38:24.003Z,0.00
2022-09-09T01:39:24.012Z,0.00
2022-09-09T01:40:23.976Z,0.00
2022-09-09T01:41:23.966Z,0.00
2022-09-09T01:42:24.002Z,0.00
2022-09-09T01:43:23.976Z,0.00
2022-09-09T01:44:23.970Z,0.00
2022-09-09T01:45:23.914Z,0.00
2022-09-09T01:46:24.017Z,0.00
2022-09-09T01:47:23.906Z,0.00
2022-09-09T01:48:23.916Z,0.00
2022-09-09T01:49:23.863Z,0.00
2022-09-09T01:50:24.004Z,0.00
2022-09-09T01:51:23.854Z,0.00
2022-09-09T01:52:23.843Z,0.00
2022-09-09T01:53:23.836Z,0.00
2022-09-09T01:54:23.816Z,0.00
2022-09-09T01:55:23.795Z,0.00
2022-09-09T01:56:23.878Z,0.00
2022-09-09T01:57:24.673Z,0.00
2022-09-09T01:58:23.786Z,0.00
2022-09-09T01:59:23.788Z,0.00
2022-09-09T02:00:23.806Z,0.00
2022-09-09T02:01:23.929Z,0.00
2022-09-09T02:02:23.912Z,0.00
2022-09-09T02:03:23.749Z,0.00
2022-09-09T02:04:23.708Z,0.00
2022-09-09T02:05:23.700Z,0.00
2022-09-09T02:06:23.699Z,0.00
2022-09-09T02:07:23.698Z,0.00
2022-09-09T02:08:24.010Z,0.00
2022-09-09T02:09:23.659Z,0.00
2022-09-09T02:10:24.430Z,0.00
2022-09-09T02:11:23.629Z,0.00
2022-09-09T02:12:23.630Z,0.00
2022-09-09T02:13:23.610Z,0.00
2022-09-09T02:14:23.641Z,0.00
2022-09-09T02:15:23.600Z,0.00
2022-09-09T02:16:23.664Z,0.00
2022-09-09T02:17:23.572Z,0.00
2022-09-09T02:18:23.564Z,0.00
2022-09-09T02:19:23.567Z,0.00
2022-09-09T02:20:23.573Z,0.00
2022-09-09T02:21:23.534Z,0.00
2022-09-09T02:22:23.537Z,0.00
2022-09-09T02:23:23.733Z,0.00
2022-09-09T02:24:23.501Z,0.00
2022-09-09T02:25:23.533Z,0.00
2022-09-09T02:26:23.472Z,0.00
2022-09-09T02:27:23.456Z,0.00
2022-09-09T02:28:23.460Z,0.00
2022-09-09T02:29:23.434Z,0.00
2022-09-09T02:30:23.534Z,0.00
2022-09-09T02:31:23.757Z,0.00
2022-09-09T02:32:24.062Z,0.00
2022-09-09T02:33:24.317Z,0.00
2022-09-09T02:34:23.400Z,0.00
2022-09-09T02:35:23.416Z,0.00
2022-09-09T02:36:23.368Z,0.00
2022-09-09T02:37:23.383Z,0.00
2022-09-09T02:38:23.392Z,0.00
2022-09-09T02:39:23.368Z,0.00
2022-09-09T02:40:23.337Z,0.00
2022-09-09T02:41:23.607Z,0.00
2022-09-09T02:42:23.310Z,0.00
2022-09-09T02:43:23.297Z,0.00
2022-09-09T02:44:24.112Z,0.00
2022-09-09T02:45:23.881Z,0.00
2022-09-09T02:46:23.369Z,0.00
2022-09-09T02:47:23.249Z,0.00
2022-09-09T02:48:23.239Z,0.00
2022-09-09T02:49:23.231Z,0.00
2022-09-09T02:50:23.221Z,0.00
2022-09-09T02:51:23.221Z,0.00
2022-09-09T02:52:23.213Z,0.00
2022-09-09T02:53:23.200Z,0.00
2022-09-09T02:54:23.172Z,0.00
2022-09-09T02:55:23.242Z,0.00
2022-09-09T02:56:23.211Z,0.00
2022-09-09T02:57:23.141Z,0.00
2022-09-09T02:58:23.142Z,0.00
2022-09-09T02:59:23.133Z,0.00
2022-09-09T03:00:23.484Z,0.00
2022-09-09T03:01:23.584Z,0.00
2022-09-09T03:02:23.144Z,0.00
2022-09-09T03:03:23.085Z,0.00
2022-09-09T03:04:23.154Z,0.00
2022-09-09T03:05:23.055Z,0.00
2022-09-09T03:06:23.085Z,0.00
2022-09-09T03:07:23.036Z,0.00
2022-09-09T03:08:23.025Z,0.00
2022-09-09T03:09:23.005Z,0.00
2022-09-09T03:10:22.987Z,0.00
2022-09-09T03:11:23.037Z,0.00
2022-09-09T03:12:22.996Z,0.00
2022-09-09T03:13:22.976Z,0.00
2022-09-09T03:14:22.958Z,0.00
2022-09-09T03:15:22.961Z,0.00
2022-09-09T03:16:22.988Z,0.00
2022-09-09T03:17:23.161Z,0.00
2022-09-09T03:18:22.957Z,0.00
2022-09-09T03:19:22.907Z,0.00
2022-09-09T03:20:22.949Z,0.00
2022-09-09T03:21:22.895Z,0.00
2022-09-09T03:22:22.875Z,0.00
2022-09-09T03:23:22.890Z,0.00
2022-09-09T03:24:22.873Z,0.00
2022-09-09T03:25:22.851Z,0.00
2022-09-09T03:26:22.959Z,0.00
2022-09-09T03:27:22.830Z,0.00
2022-09-09T03:28:22.799Z,0.00
2022-09-09T03:29:22.790Z,0.00
2022-09-09T03:30:22.841Z,0.00
2022-09-09T03:31:22.804Z,0.00
2022-09-09T03:32:22.965Z,0.00
2022-09-09T03:33:22.749Z,0.00
2022-09-09T03:34:22.740Z,0.00
2022-09-09T03:35:22.730Z,0.00
2022-09-09T03:36:22.720Z,0.00
2022-09-09T03:37:22.720Z,0.00
2022-09-09T03:38:22.836Z,0.00
2022-09-09T03:39:22.696Z,0.00
2022-09-09T03:40:22.703Z,0.00
2022-09-09T03:41:22.707Z,0.00
2022-09-09T03:42:22.662Z,0.00
2022-09-09T03:43:22.644Z,0.00
2022-09-09T03:44:23.433Z,0.00
2022-09-09T03:45:23.292Z,0.00
2022-09-09T03:46:22.644Z,0.00
2022-09-09T03:47:22.919Z,0.00
2022-09-09T03:48:22.593Z,0.00
2022-09-09T03:49:22.626Z,0.00
2022-09-09T03:50:22.576Z,0.00
2022-09-09T03:51:22.588Z,0.00
2022-09-09T03:52:23.793Z,0.00
2022-09-09T03:53:22.535Z,0.00
2022-09-09T03:54:22.541Z,0.00
2022-09-09T03:55:22.576Z,0.00
2022-09-09T03:56:22.647Z,0.00
2022-09-09T03:57:22.508Z,0.00
2022-09-09T03:58:22.488Z,0.00
2022-09-09T03:59:22.482Z,0.00
2022-09-09T04:00:22.479Z,0.00
2022-09-09T04:01:22.589Z,0.00
2022-09-09T04:02:22.636Z,0.00
2022-09-09T04:03:25.889Z,0.00
2022-09-09T04:04:23.430Z,0.00
2022-09-09T04:05:22.488Z,0.00
2022-09-09T04:06:22.415Z,0.00
2022-09-09T04:07:22.390Z,0.00
2022-09-09T04:08:22.723Z,0.00
2022-09-09T04:09:22.389Z,0.00
2022-09-09T04:10:22.373Z,0.00
2022-09-09T04:11:22.351Z,0.00
2022-09-09T04:12:22.388Z,0.00
2022-09-09T04:13:22.391Z,0.00
2022-09-09T04:14:22.323Z,0.00
2022-09-09T04:15:22.303Z,0.00
2022-09-09T04:16:22.371Z,0.00
2022-09-09T04:17:22.293Z,0.00
2022-09-09T04:18:22.264Z,0.00
2022-09-09T04:19:22.294Z,0.00
2022-09-09T04:20:22.254Z,0.00
2022-09-09T04:21:22.249Z,0.00
2022-09-09T04:22:22.213Z,0.00
2022-09-09T04:23:22.202Z,0.00
2022-09-09T04:24:22.225Z,0.00
2022-09-09T04:25:22.311Z,0.00
2022-09-09T04:26:22.181Z,0.00
2022-09-09T04:27:22.185Z,0.00
2022-09-09T04:28:22.166Z,0.00
2022-09-09T04:29:22.164Z,0.00
2022-09-09T04:30:22.155Z,0.00
2022-09-09T04:31:22.161Z,0.00
2022-09-09T04:32:22.176Z,0.00
2022-09-09T04:33:22.108Z,0.00
2022-09-09T04:34:22.107Z,0.00
2022-09-09T04:35:22.130Z,0.00
2022-09-09T04:36:22.117Z,0.00
2022-09-09T04:37:22.096Z,0.00
2022-09-09T04:38:22.067Z,0.00
2022-09-09T04:39:22.042Z,0.00
2022-09-09T04:40:22.039Z,0.00
2022-09-09T04:41:22.052Z,0.00
2022-09-09T04:42:21.998Z,0.00
2022-09-09T04:43:21.999Z,0.00
2022-09-09T04:44:22.010Z,0.00
2022-09-09T04:45:22.026Z,0.00
2022-09-09T04:46:22.749Z,0.00
2022-09-09T04:47:22.541Z,0.00
2022-09-09T04:48:22.820Z,0.00
2022-09-09T04:49:22.110Z,0.00
2022-09-09T04:50:21.932Z,0.00
2022-09-09T04:51:21.949Z,0.00
2022-09-09T04:52:21.915Z,0.00
2022-09-09T04:53:21.914Z,0.00
2022-09-09T04:54:21.935Z,0.00
2022-09-09T04:55:21.883Z,0.00
2022-09-09T04:56:21.865Z,0.00
2022-09-09T04:57:22.688Z,0.00
2022-09-09T04:58:21.889Z,0.00
2022-09-09T04:59:21.873Z,0.00
2022-09-09T05:00:22.134Z,0.00
2022-09-09T05:01:22.325Z,0.00
2022-09-09T05:02:21.884Z,0.00
2022-09-09T05:03:21.827Z,0.00
2022-09-09T05:04:22.087Z,0.00
2022-09-09T05:05:21.843Z,0.00
2022-09-09T05:06:21.763Z,0.00
2022-09-09T05:07:21.795Z,0.00
2022-09-09T05:08:21.735Z,0.00
2022-09-09T05:09:21.724Z,0.00
2022-09-09T05:10:21.725Z,0.00
2022-09-09T05:11:21.707Z,0.00
2022-09-09T05:12:21.757Z,0.00
2022-09-09T05:13:21.688Z,0.00
2022-09-09T05:14:21.670Z,0.00
2022-09-09T05:15:21.667Z,0.00
2022-09-09T05:16:21.723Z,0.00
2022-09-09T05:17:21.648Z,0.00
2022-09-09T05:18:21.688Z,0.00
2022-09-09T05:19:22.446Z,0.00
2022-09-09T05:20:21.615Z,0.00
2022-09-09T05:21:21.610Z,0.00
2022-09-09T05:22:21.620Z,0.00
2022-09-09T05:23:21.951Z,0.00
2022-09-09T05:24:21.589Z,0.00
2022-09-09T05:25:21.601Z,0.00
2022-09-09T05:26:21.592Z,0.00
2022-09-09T05:27:21.614Z,0.00
2022-09-09T05:28:21.551Z,0.00
2022-09-09T05:29:22.325Z,0.00
2022-09-09T05:30:21.501Z,0.00
2022-09-09T05:31:21.553Z,0.00
2022-09-09T05:32:21.495Z,0.00
2022-09-09T05:33:21.596Z,0.00
2022-09-09T05:34:21.462Z,0.00
2022-09-09T05:35:21.443Z,0.00
2022-09-09T05:36:21.576Z,0.00
2022-09-09T05:37:21.449Z,0.00
2022-09-09T05:38:23.817Z,0.00
2022-09-09T05:39:22.403Z,0.00
2022-09-09T05:40:21.478Z,5.62
2022-09-09T05:41:21.395Z,0.00
2022-09-09T05:42:21.666Z,0.00
2022-09-09T05:43:21.410Z,0.00
2022-09-09T05:44:21.490Z,0.00
2022-09-09T05:45:21.370Z,0.00
2022-09-09T05:46:21.407Z,0.00
2022-09-09T05:47:21.317Z,0.00
2022-09-09T05:48:21.357Z,0.00
2022-09-09T05:49:21.290Z,0.00
2022-09-09T05:50:21.356Z,0.00
2022-09-09T05:51:21.254Z,0.00
2022-09-09T05:52:21.286Z,0.00
2022-09-09T05:53:21.278Z,0.00
2022-09-09T05:54:21.246Z,0.00
2022-09-09T05:55:21.232Z,0.00
2022-09-09T05:56:21.229Z,5.62
2022-09-09T05:57:21.225Z,5.62
2022-09-09T05:58:21.213Z,5.62
2022-09-09T05:59:21.220Z,5.62
2022-09-09T06:00:21.172Z,5.62
2022-09-09T06:01:21.181Z,0.00
2022-09-09T06:02:21.304Z,0.00
2022-09-09T06:03:21.198Z,0.00
2022-09-09T06:04:21.142Z,0.00
2022-09-09T06:05:21.152Z,0.00
2022-09-09T06:06:21.169Z,5.62
2022-09-09T06:07:21.101Z,5.62
2022-09-09T06:08:21.124Z,0.00
2022-09-09T06:09:21.081Z,0.00
2022-09-09T06:10:21.173Z,0.00
2022-09-09T06:11:21.062Z,5.62
2022-09-09T06:12:21.073Z,5.62
2022-09-09T06:13:21.074Z,0.00
2022-09-09T06:14:21.043Z,0.00
2022-09-09T06:15:21.023Z,0.00
2022-09-09T06:16:21.079Z,0.00
2022-09-09T06:17:21.004Z,0.00
2022-09-09T06:18:21.015Z,0.00
2022-09-09T06:19:20.985Z,0.00
2022-09-09T06:20:20.986Z,5.62
2022-09-09T06:21:20.965Z,0.00
2022-09-09T06:22:20.936Z,0.00
2022-09-09T06:23:20.966Z,0.00
2022-09-09T06:24:20.956Z,5.62
2022-09-09T06:25:20.924Z,5.62
2022-09-09T06:26:20.957Z,5.62
2022-09-09T06:27:20.895Z,5.62
2022-09-09T06:28:20.886Z,0.00
2022-09-09T06:29:20.888Z,0.00
2022-09-09T06:30:20.898Z,0.00
2022-09-09T06:31:20.895Z,0.00
2022-09-09T06:32:20.839Z,5.62
2022-09-09T06:33:21.138Z,0.00
2022-09-09T06:34:20.829Z,0.00
2022-09-09T06:35:20.819Z,0.00
2022-09-09T06:36:20.879Z,0.00
2022-09-09T06:37:20.879Z,0.00
2022-09-09T06:38:20.782Z,0.00
2022-09-09T06:39:20.764Z,0.00
2022-09-09T06:40:20.819Z,0.00
2022-09-09T06:41:20.741Z,5.62
2022-09-09T06:42:20.870Z,5.62
2022-09-09T06:43:20.745Z,0.00
2022-09-09T06:44:20.742Z,0.00
2022-09-09T06:45:20.691Z,0.00
2022-09-09T06:46:20.723Z,5.62
2022-09-09T06:47:20.672Z,5.62
2022-09-09T06:48:20.721Z,5.62
2022-09-09T06:49:20.652Z,5.62
2022-09-09T06:50:20.632Z,5.62
2022-09-09T06:51:20.632Z,5.62
2022-09-09T06:52:20.637Z,5.62
2022-09-09T06:53:20.641Z,5.62
2022-09-09T06:54:20.604Z,0.00
2022-09-09T06:55:20.618Z,0.00
2022-09-09T06:56:20.585Z,5.62
2022-09-09T06:57:36.320Z,5.62
2022-09-09T06:58:21.575Z,5.62
2022-09-09T06:59:20.554Z,5.62
2022-09-09T07:00:20.535Z,5.62
2022-09-09T07:01:20.642Z,5.62
2022-09-09T07:02:20.567Z,5.62
2022-09-09T07:03:20.538Z,5.62
2022-09-09T07:04:20.525Z,5.62
2022-09-09T07:05:20.523Z,5.62
2022-09-09T07:06:20.487Z,5.62
2022-09-09T07:07:20.459Z,5.62
2022-09-09T07:08:20.458Z,5.62
2022-09-09T07:09:20.468Z,5.62
2022-09-09T07:10:20.477Z,5.62
2022-09-09T07:11:20.438Z,5.62
2022-09-09T07:12:20.578Z,5.62
2022-09-09T07:13:20.420Z,5.62
2022-09-09T07:14:20.388Z,5.62
2022-09-09T07:15:20.430Z,5.62
2022-09-09T07:16:20.422Z,5.62
2022-09-09T07:17:20.349Z,0.00
2022-09-09T07:18:21.118Z,5.62
2022-09-09T07:19:20.360Z,5.62
2022-09-09T07:20:20.328Z,5.62
2022-09-09T07:21:20.350Z,5.62
2022-09-09T07:22:20.482Z,5.62
2022-09-09T07:23:20.321Z,5.62
2022-09-09T07:24:20.620Z,5.62
2022-09-09T07:25:20.301Z,5.62
2022-09-09T07:26:20.275Z,5.62
2022-09-09T07:27:20.283Z,5.62
2022-09-09T07:28:20.244Z,5.62
2022-09-09T07:29:21.123Z,5.62
2022-09-09T07:30:25.509Z,5.62
2022-09-09T07:31:21.267Z,5.62
2022-09-09T07:32:20.225Z,5.62
2022-09-09T07:33:20.224Z,5.62
2022-09-09T07:34:20.204Z,5.62
2022-09-09T07:35:20.183Z,5.62
2022-09-09T07:36:20.166Z,11.25
2022-09-09T07:37:20.157Z,11.25
2022-09-09T07:38:20.156Z,11.25
2022-09-09T07:39:20.145Z,11.25
2022-09-09T07:40:20.210Z,5.62
2022-09-09T07:41:20.114Z,5.62
2022-09-09T07:42:20.111Z,11.25
2022-09-09T07:43:20.107Z,11.25
2022-09-09T07:44:20.088Z,11.25
2022-09-09T07:45:20.067Z,5.62
2022-09-09T07:46:20.135Z,11.25
2022-09-09T07:47:20.048Z,11.25
2022-09-09T07:48:20.027Z,11.25
2022-09-09T07:49:26.219Z,11.25
2022-09-09T07:50:21.817Z,11.25
2022-09-09T07:51:19.999Z,11.25
2022-09-09T07:52:20.704Z,11.25
2022-09-09T07:53:19.988Z,16.88
2022-09-09T07:54:20.021Z,11.25
2022-09-09T07:55:19.962Z,11.25
2022-09-09T07:56:19.939Z,11.25
2022-09-09T07:57:19.930Z,11.25
2022-09-09T07:58:19.917Z,11.25
2022-09-09T07:59:19.919Z,5.62
2022-09-09T08:00:20.042Z,5.62
2022-09-09T08:01:19.969Z,5.62
2022-09-09T08:02:19.872Z,11.25
2022-09-09T08:03:19.907Z,11.25
2022-09-09T08:04:19.871Z,11.25
2022-09-09T08:05:19.872Z,11.25
2022-09-09T08:06:19.842Z,11.25
2022-09-09T08:07:19.812Z,11.25
2022-09-09T08:08:19.813Z,11.25
2022-09-09T08:09:19.826Z,11.25
2022-09-09T08:10:19.872Z,11.25
2022-09-09T08:11:19.811Z,5.62
2022-09-09T08:12:19.774Z,5.62
2022-09-09T08:13:19.794Z,5.62
2022-09-09T08:14:19.761Z,5.62
2022-09-09T08:15:19.765Z,5.62
2022-09-09T08:16:19.765Z,11.25
2022-09-09T08:17:19.746Z,11.25
2022-09-09T08:18:19.726Z,16.88
2022-09-09T08:19:19.716Z,22.50
2022-09-09T08:20:19.677Z,22.50
2022-09-09T08:21:19.708Z,16.88
2022-09-09T08:22:19.653Z,16.88
2022-09-09T08:23:19.666Z,16.88
2022-09-09T08:24:19.657Z,16.88
2022-09-09T08:25:19.950Z,16.88
2022-09-09T08:26:19.755Z,16.88
2022-09-09T08:27:20.523Z,16.88
2022-09-09T08:28:19.597Z,16.88
2022-09-09T08:29:19.742Z,11.25
2022-09-09T08:30:19.580Z,11.25
2022-09-09T08:31:19.670Z,11.25
2022-09-09T08:32:19.612Z,11.25
2022-09-09T08:33:19.549Z,11.25
2022-09-09T08:34:20.334Z,16.88
2022-09-09T08:35:20.109Z,22.50
2022-09-09T08:36:19.523Z,16.88
2022-09-09T08:37:19.520Z,16.88
2022-09-09T08:38:19.808Z,11.25
2022-09-09T08:39:20.198Z,16.88
2022-09-09T08:40:19.585Z,16.88
2022-09-09T08:41:19.471Z,16.88
2022-09-09T08:42:19.442Z,16.88
2022-09-09T08:43:19.450Z,11.25
2022-09-09T08:44:19.552Z,11.25
2022-09-09T08:45:19.431Z,16.88
2022-09-09T08:46:19.489Z,16.88
2022-09-09T08:47:19.409Z,16.88
2022-09-09T08:48:19.392Z,11.25
2022-09-09T08:49:19.404Z,11.25
2022-09-09T08:50:19.395Z,11.25
2022-09-09T08:51:19.373Z,11.25
2022-09-09T08:52:19.344Z,16.88
2022-09-09T08:53:19.332Z,16.88
2022-09-09T08:54:41.503Z,16.88
2022-09-09T08:55:20.343Z,22.50
2022-09-09T08:56:19.325Z,22.50
2022-09-09T08:57:19.316Z,22.50
2022-09-09T08:58:19.278Z,22.50
2022-09-09T08:59:19.285Z,22.50
2022-09-09T09:00:19.278Z,22.50
2022-09-09T09:01:19.369Z,22.50
2022-09-09T09:02:19.288Z,16.88
2022-09-09T09:03:19.669Z,22.50
2022-09-09T09:04:19.249Z,22.50
2022-09-09T09:05:19.207Z,16.88
2022-09-09T09:06:19.298Z,16.88
2022-09-09T09:07:19.196Z,11.25
2022-09-09T09:08:19.178Z,11.25
2022-09-09T09:09:19.157Z,16.88
2022-09-09T09:10:40.010Z,22.50
2022-09-09T09:11:20.208Z,16.88
2022-09-09T09:12:19.137Z,16.88
2022-09-09T09:13:19.128Z,22.50
2022-09-09T09:14:19.213Z,22.50
2022-09-09T09:15:19.101Z,22.50
2022-09-09T09:16:19.128Z,22.50
2022-09-09T09:17:19.111Z,22.50
2022-09-09T09:18:19.056Z,16.88
2022-09-09T09:19:19.060Z,16.88
2022-09-09T09:20:19.052Z,11.25
2022-09-09T09:21:19.042Z,11.25
2022-09-09T09:22:19.053Z,16.88
2022-09-09T09:23:19.020Z,22.50
2022-09-09T09:24:21.515Z,22.50
2022-09-09T09:25:18.981Z,22.50
2022-09-09T09:26:18.972Z,22.50
2022-09-09T09:27:19.015Z,16.88
2022-09-09T09:28:18.952Z,11.25
2022-09-09T09:29:18.952Z,16.88
2022-09-09T09:30:26.787Z,22.50
2022-09-09T09:31:19.989Z,16.88
2022-09-09T09:32:19.011Z,16.88
2022-09-09T09:33:18.917Z,16.88
2022-09-09T09:34:18.886Z,16.88
2022-09-09T09:35:18.886Z,16.88
2022-09-09T09:36:18.866Z,16.88
2022-09-09T09:37:18.863Z,16.88
2022-09-09T09:40:19.816Z,28.12
2022-09-09T09:41:18.821Z,33.75
2022-09-09T09:42:21.597Z,33.75
2022-09-09T09:43:18.849Z,28.12
2022-09-09T09:44:18.767Z,16.88
2022-09-09T09:45:18.777Z,22.50
2022-09-09T09:46:18.885Z,16.88
2022-09-09T09:47:18.768Z,11.25
2022-09-09T09:48:18.990Z,11.25
2022-09-09T09:49:18.739Z,16.88
2022-09-09T09:50:18.750Z,16.88
2022-09-09T09:51:18.702Z,11.25
2022-09-09T09:52:18.700Z,11.25
2022-09-09T09:53:18.709Z,11.25
2022-09-09T09:54:18.701Z,11.25
2022-09-09T09:55:18.659Z,5.62
2022-09-09T09:56:18.671Z,5.62
2022-09-09T09:57:18.679Z,0.00
2022-09-09T09:58:18.943Z,0.00
2022-09-09T09:59:23.651Z,5.62
2022-09-09T10:00:20.491Z,5.62
2022-09-09T10:01:18.636Z,5.62
2022-09-09T10:02:18.594Z,5.62
2022-09-09T10:03:18.581Z,5.62
2022-09-09T10:04:18.607Z,5.62
2022-09-09T10:05:22.005Z,5.62
2022-09-09T10:06:19.550Z,5.62
2022-09-09T10:07:18.533Z,5.62
2022-09-09T10:08:18.523Z,5.62
2022-09-09T10:09:18.574Z,5.62
2022-09-09T10:10:18.513Z,11.25
2022-09-09T10:11:18.504Z,11.25
2022-09-09T10:12:18.572Z,11.25
2022-09-09T10:13:18.520Z,16.88
2022-09-09T10:14:18.467Z,16.88
2022-09-09T10:15:18.545Z,16.88
2022-09-09T10:16:18.496Z,16.88
2022-09-09T10:17:18.445Z,16.88
2022-09-09T10:18:18.420Z,22.50
2022-09-09T10:19:18.406Z,22.50
2022-09-09T10:20:18.407Z,28.12
2022-09-09T10:21:18.437Z,39.38
2022-09-09T10:22:18.691Z,50.62
2022-09-09T10:23:18.388Z,45.00
2022-09-09T10:24:18.384Z,39.38
2022-09-09T10:25:18.368Z,39.38
2022-09-09T10:26:18.346Z,39.38
2022-09-09T10:27:18.691Z,33.75
2022-09-09T10:28:18.719Z,33.75
2022-09-09T10:29:18.320Z,28.12
2022-09-09T10:30:18.300Z,22.50
2022-09-09T10:31:18.521Z,16.88
2022-09-09T10:32:18.274Z,16.88
2022-09-09T10:33:18.320Z,16.88
2022-09-09T10:34:18.271Z,16.88
2022-09-09T10:35:18.341Z,11.25
2022-09-09T10:36:18.334Z,11.25
2022-09-09T10:37:18.221Z,11.25
2022-09-09T10:38:19.217Z,28.12
2022-09-09T10:39:18.219Z,28.12
2022-09-09T10:40:18.288Z,16.88
2022-09-09T10:41:18.182Z,16.88
2022-09-09T10:42:18.174Z,16.88
2022-09-09T10:43:18.159Z,22.50
2022-09-09T10:44:18.210Z,22.50
2022-09-09T10:45:18.173Z,22.50
2022-09-09T10:46:18.165Z,28.12
2022-09-09T10:47:18.197Z,33.75
2022-09-09T10:48:18.474Z,39.38
2022-09-09T10:49:22.774Z,33.75
2022-09-09T10:50:18.083Z,33.75
2022-09-09T10:51:18.099Z,33.75
2022-09-09T10:52:18.065Z,33.75
2022-09-09T10:53:18.037Z,33.75
2022-09-09T10:54:18.037Z,28.12
2022-09-09T10:55:18.069Z,22.50
2022-09-09T10:56:18.013Z,22.50
2022-09-09T10:57:17.998Z,28.12
2022-09-09T10:58:17.987Z,22.50
2022-09-09T10:59:17.979Z,16.88
2022-09-09T11:00:18.020Z,22.50
2022-09-09T11:01:18.026Z,22.50
2022-09-09T11:02:17.969Z,22.50
2022-09-09T11:03:18.825Z,28.12
2022-09-09T11:04:18.125Z,28.12
2022-09-09T11:05:17.995Z,22.50
2022-09-09T11:06:17.941Z,22.50
2022-09-09T11:07:17.901Z,22.50
2022-09-09T11:08:17.936Z,28.12
2022-09-09T11:09:18.705Z,22.50
2022-09-09T11:10:18.820Z,22.50
2022-09-09T11:11:17.858Z,33.75
2022-09-09T11:12:17.880Z,39.38
2022-09-09T11:13:17.829Z,28.12
2022-09-09T11:14:17.822Z,28.12
2022-09-09T11:15:17.831Z,22.50
2022-09-09T11:16:17.875Z,28.12
2022-09-09T11:17:17.900Z,22.50
2022-09-09T11:18:17.772Z,28.12
2022-09-09T11:19:17.763Z,28.12
2022-09-09T11:20:17.743Z,28.12
2022-09-09T11:21:17.744Z,28.12
2022-09-09T11:22:17.957Z,28.12
2022-09-09T11:23:18.224Z,28.12
2022-09-09T11:24:17.764Z,28.12
2022-09-09T11:25:17.716Z,28.12
2022-09-09T11:26:17.682Z,28.12
2022-09-09T11:27:17.686Z,28.12
2022-09-09T11:28:17.687Z,28.12
2022-09-09T11:29:17.654Z,33.75
2022-09-09T11:30:37.707Z,33.75
2022-09-09T11:31:18.759Z,33.75
2022-09-09T11:32:17.741Z,33.75
2022-09-09T11:33:17.646Z,33.75
2022-09-09T11:34:17.635Z,33.75
2022-09-09T11:35:17.587Z,33.75
2022-09-09T11:36:17.576Z,33.75
2022-09-09T11:37:17.590Z,33.75
2022-09-09T11:38:17.589Z,33.75
2022-09-09T11:39:17.559Z,33.75
2022-09-09T11:40:17.537Z,28.12
2022-09-09T11:41:21.533Z,39.38
2022-09-09T11:42:17.700Z,39.38
2022-09-09T11:43:17.530Z,39.38
2022-09-09T11:44:17.511Z,39.38
2022-09-09T11:45:17.523Z,39.38
2022-09-09T11:46:17.511Z,45.00
2022-09-09T11:47:17.853Z,39.38
2022-09-09T11:48:17.485Z,39.38
2022-09-09T11:49:17.450Z,39.38
2022-09-09T11:50:17.421Z,39.38
2022-09-09T11:51:17.465Z,16.88
2022-09-09T11:52:17.393Z,33.75
2022-09-09T11:53:17.468Z,33.75
2022-09-09T11:54:17.393Z,11.25
2022-09-09T11:55:17.387Z,11.25
2022-09-09T11:56:17.355Z,28.12
2022-09-09T11:57:17.356Z,33.75
2022-09-09T11:58:17.342Z,33.75
2022-09-09T11:59:17.357Z,45.00
2022-09-09T12:00:17.314Z,45.00
2022-09-09T12:01:17.335Z,28.12
2022-09-09T12:02:17.380Z,39.38
2022-09-09T12:03:17.299Z,45.00
2022-09-09T12:04:21.425Z,28.12
2022-09-09T12:05:18.342Z,16.88
2022-09-09T12:06:17.245Z,16.88
2022-09-09T12:07:17.257Z,45.00
2022-09-09T12:08:17.236Z,16.88
2022-09-09T12:09:17.268Z,16.88
2022-09-09T12:10:17.239Z,28.12
2022-09-09T12:11:17.218Z,39.38
2022-09-09T12:12:17.211Z,39.38
2022-09-09T12:13:17.198Z,33.75
2022-09-09T12:14:17.180Z,28.12
2022-09-09T12:15:17.211Z,33.75
2022-09-09T12:16:17.164Z,45.00
2022-09-09T12:17:17.119Z,45.00
2022-09-09T12:18:17.117Z,50.62
2022-09-09T12:19:17.136Z,45.00
2022-09-09T12:20:17.132Z,50.62
2022-09-09T12:21:17.092Z,50.62
2022-09-09T12:22:17.079Z,50.62
2022-09-09T12:23:17.083Z,45.00
2022-09-09T12:24:17.060Z,28.12
2022-09-09T12:25:22.605Z,50.62
2022-09-09T12:26:18.031Z,50.62
2022-09-09T12:27:17.032Z,50.62
2022-09-09T12:28:17.012Z,50.62
2022-09-09T12:29:17.025Z,50.62
2022-09-09T12:30:17.006Z,50.62
2022-09-09T12:31:17.028Z,50.62
2022-09-09T12:32:17.003Z,50.62
2022-09-09T12:33:16.955Z,50.62
2022-09-09T12:34:16.956Z,50.62
2022-09-09T12:35:17.744Z,45.00
2022-09-09T12:36:16.964Z,50.62
2022-09-09T12:37:16.915Z,16.88
2022-09-09T12:38:16.902Z,22.50
2022-09-09T12:39:17.275Z,11.25
2022-09-09T12:40:17.017Z,16.88
2022-09-09T12:41:16.873Z,50.62
2022-09-09T12:42:16.974Z,33.75
2022-09-09T12:43:16.857Z,22.50
2022-09-09T12:44:16.863Z,61.88
2022-09-09T12:45:16.875Z,56.25
2022-09-09T12:46:16.920Z,45.00
2022-09-09T12:47:16.805Z,16.88
2022-09-09T12:48:16.789Z,33.75
2022-09-09T12:49:16.789Z,33.75
2022-09-09T12:50:16.781Z,33.75
2022-09-09T12:51:16.851Z,28.12
2022-09-09T12:52:16.760Z,22.50
2022-09-09T12:53:16.749Z,22.50
2022-09-09T12:54:16.727Z,16.88
2022-09-09T12:55:16.830Z,22.50
2022-09-09T12:56:16.723Z,16.88
2022-09-09T12:57:16.734Z,11.25
2022-09-09T12:58:16.690Z,11.25
2022-09-09T12:59:16.698Z,22.50
2022-09-09T13:00:17.533Z,33.75
2022-09-09T13:01:16.702Z,33.75
2022-09-09T13:02:16.734Z,28.12
2022-09-09T13:03:16.651Z,22.50
2022-09-09T13:04:16.620Z,28.12
2022-09-09T13:05:16.624Z,45.00
2022-09-09T13:06:16.616Z,50.62
2022-09-09T13:07:16.648Z,61.88
2022-09-09T13:08:16.605Z,56.25
2022-09-09T13:10:25.487Z,56.25
2022-09-09T13:11:17.564Z,39.38